createdAt,value
2019-02-19T00:02:22.922Z,106.70
2019-02-19T00:04:55.212Z,107.67
2019-02-19T00:07:26.665Z,115.33
2019-02-19T00:09:58.080Z,115.87
2019-02-19T00:12:30.789Z,111.83
2019-02-19T00:15:07.882Z,118.83
2019-02-19T00:17:36.012Z,121.00
2019-02-19T00:20:07.382Z,118.73
2019-02-19T00:22:39.050Z,118.37
2019-02-19T00:25:10.421Z,125.47
2019-02-19T00:27:41.902Z,116.63
2019-02-19T00:30:13.412Z,118.47
2019-02-19T00:32:44.859Z,110.00
2019-02-19T00:35:16.230Z,110.23
2019-02-19T00:37:47.651Z,108.27
2019-02-19T00:40:18.946Z,106.10
2019-02-19T00:42:51.661Z,103.67
2019-02-19T00:45:23.068Z,98.83
2019-02-19T00:47:54.500Z,99.20
2019-02-19T00:50:26.750Z,96.77
2019-02-19T00:52:58.049Z,98.10
2019-02-19T00:55:29.522Z,95.37
2019-02-19T00:58:00.822Z,97.00
2019-02-19T01:00:32.101Z,95.97
2019-02-19T01:03:04.840Z,99.23
2019-02-19T01:05:36.178Z,89.73
2019-02-19T01:08:07.622Z,91.93
2019-02-19T01:10:38.873Z,91.97
2019-02-19T01:13:10.269Z,91.03
2019-02-19T01:15:41.527Z,100.60
2019-02-19T01:18:13.844Z,95.77
2019-02-19T01:20:45.226Z,99.50
2019-02-19T01:23:16.524Z,92.87
2019-02-19T01:25:47.908Z,91.20
2019-02-19T01:28:19.301Z,90.77
2019-02-19T01:30:50.529Z,97.27
2019-02-19T01:33:21.859Z,93.33
2019-02-19T01:35:53.131Z,91.30
2019-02-19T01:38:24.459Z,94.23
2019-02-19T01:40:55.726Z,97.30
2019-02-19T01:43:27.129Z,94.27
2019-02-19T01:45:58.487Z,97.80
2019-02-19T01:48:29.874Z,96.37
2019-02-19T01:51:01.132Z,94.37
2019-02-19T01:53:32.540Z,100.27
2019-02-19T01:56:04.899Z,104.47
2019-02-19T01:58:43.555Z,96.50
2019-02-19T02:01:10.382Z,97.93
2019-02-19T02:03:41.791Z,92.43
2019-02-19T02:06:14.890Z,96.23
2019-02-19T02:08:46.312Z,84.83
2019-02-19T02:11:17.688Z,89.23
2019-02-19T02:13:48.958Z,89.13
2019-02-19T02:16:21.869Z,90.20
2019-02-19T02:18:54.087Z,92.27
2019-02-19T02:21:25.360Z,88.30
2019-02-19T02:23:56.770Z,85.93
2019-02-19T02:26:28.141Z,90.90
2019-02-19T02:28:59.558Z,82.87
2019-02-19T02:31:30.909Z,90.27
2019-02-19T02:34:02.230Z,85.93
2019-02-19T02:36:34.475Z,84.90
2019-02-19T02:39:05.791Z,87.43
2019-02-19T02:41:37.071Z,88.03
2019-02-19T02:44:08.502Z,91.33
2019-02-19T02:46:39.869Z,91.07
2019-02-19T02:49:11.181Z,94.33
2019-02-19T02:51:42.630Z,100.77
2019-02-19T02:54:14.158Z,96.27
2019-02-19T02:56:45.549Z,100.53
2019-02-19T02:59:16.960Z,89.63
2019-02-19T03:01:48.220Z,100.77
2019-02-19T03:04:19.627Z,91.87
2019-02-19T03:06:52.550Z,99.67
2019-02-19T03:09:23.875Z,99.40
2019-02-19T03:11:55.288Z,98.50
2019-02-19T03:14:27.558Z,97.53
2019-02-19T03:16:58.758Z,94.03
2019-02-19T03:19:31.043Z,90.50
2019-02-19T03:22:02.421Z,95.03
2019-02-19T03:24:33.829Z,91.67
2019-02-19T03:27:07.502Z,89.97
2019-02-19T03:29:39.502Z,89.17
2019-02-19T03:32:10.888Z,104.17
2019-02-19T03:37:43.845Z,102.30
2019-02-19T03:40:15.163Z,104.23
2019-02-19T03:42:47.044Z,96.20
2019-02-19T03:45:18.439Z,102.73
2019-02-19T03:47:49.719Z,97.63
2019-02-19T03:50:21.130Z,97.87
2019-02-19T03:52:52.849Z,92.73
2019-02-19T03:55:24.114Z,98.00
2019-02-19T03:57:55.518Z,94.97
2019-02-19T04:00:26.973Z,97.00
2019-02-19T04:02:58.232Z,98.13
2019-02-19T04:05:29.553Z,101.07
2019-02-19T04:08:00.930Z,95.70
2019-02-19T04:10:32.351Z,90.67
2019-02-19T04:13:03.622Z,93.07
2019-02-19T04:15:34.976Z,96.20
2019-02-19T04:18:06.421Z,92.83
2019-02-19T04:20:37.847Z,91.87
2019-02-19T04:23:09.238Z,90.73
2019-02-19T04:25:49.514Z,93.50
2019-02-19T04:28:16.422Z,92.17
2019-02-19T04:30:47.841Z,92.43
2019-02-19T04:33:19.119Z,94.17
2019-02-19T04:35:59.644Z,94.90
2019-02-19T04:38:36.640Z,96.40
2019-02-19T04:41:08.080Z,94.47
2019-02-19T04:43:39.455Z,97.07
2019-02-19T04:46:10.783Z,95.37
2019-02-19T04:48:42.062Z,94.50
2019-02-19T04:51:13.550Z,94.63
2019-02-19T04:53:44.921Z,92.17
2019-02-19T04:56:16.202Z,90.73
2019-02-19T04:58:47.484Z,92.17
2019-02-19T05:01:18.810Z,91.63
2019-02-19T05:03:50.143Z,94.73
2019-02-19T05:06:21.470Z,93.63
2019-02-19T05:08:52.844Z,88.40
2019-02-19T05:11:24.191Z,94.37
2019-02-19T05:13:55.478Z,93.90
2019-02-19T05:16:26.891Z,88.63
2019-02-19T05:18:58.158Z,88.37
2019-02-19T05:21:30.295Z,87.07
2019-02-19T05:24:01.590Z,94.07
2019-02-19T05:26:32.983Z,87.40
2019-02-19T05:31:52.727Z,86.57
2019-02-19T05:34:25.159Z,101.07
2019-02-19T05:36:56.550Z,83.63
2019-02-19T05:39:28.003Z,87.83
2019-02-19T05:42:02.483Z,84.67
2019-02-19T05:44:37.372Z,85.27
2019-02-19T05:47:08.825Z,85.67
2019-02-19T05:49:41.184Z,84.83
2019-02-19T05:52:14.267Z,84.53
2019-02-19T05:54:45.571Z,82.97
2019-02-19T05:57:16.879Z,85.73
2019-02-19T05:59:48.256Z,84.20
2019-02-19T06:02:19.599Z,85.50
2019-02-19T06:04:50.999Z,82.77
2019-02-19T06:07:22.362Z,79.77
2019-02-19T06:09:53.719Z,82.50
2019-02-19T06:12:25.143Z,85.40
2019-02-19T06:14:56.663Z,82.30
2019-02-19T06:17:28.062Z,83.53
2019-02-19T06:19:59.457Z,85.63
2019-02-19T06:22:31.802Z,89.80
2019-02-19T06:25:05.992Z,92.23
2019-02-19T06:27:37.302Z,94.93
2019-02-19T06:30:13.086Z,100.57
2019-02-19T06:32:44.368Z,96.73
2019-02-19T06:35:16.578Z,214.27
2019-02-19T06:37:48.102Z,268.63
2019-02-19T06:40:24.682Z,234.50
2019-02-19T06:42:55.914Z,182.00
2019-02-19T06:45:34.218Z,161.03
2019-02-19T06:48:09.411Z,132.80
2019-02-19T06:50:40.851Z,134.63
2019-02-19T06:53:12.224Z,129.77
2019-02-19T06:55:44.978Z,130.30
2019-02-19T06:58:17.462Z,126.23
2019-02-19T07:00:48.878Z,113.60
2019-02-19T07:03:27.730Z,113.63
2019-02-19T07:05:59.003Z,99.77
2019-02-19T07:08:31.907Z,94.17
2019-02-19T07:11:04.011Z,100.77
2019-02-19T07:13:36.355Z,99.40
2019-02-19T07:16:08.067Z,96.83
2019-02-19T07:18:39.502Z,94.10
2019-02-19T07:21:10.686Z,103.63
2019-02-19T07:23:42.940Z,97.93
2019-02-19T07:26:14.260Z,100.60
2019-02-19T07:28:45.593Z,120.47
2019-02-19T07:31:16.989Z,117.27
2019-02-19T07:33:48.299Z,121.90
2019-02-19T07:36:19.719Z,132.40
2019-02-19T07:38:52.472Z,113.50
2019-02-19T07:41:24.370Z,134.20
2019-02-19T07:43:55.683Z,134.47
2019-02-19T07:46:27.044Z,130.40
2019-02-19T07:48:58.463Z,149.90
2019-02-19T07:51:29.831Z,158.13
2019-02-19T07:54:01.143Z,141.93
2019-02-19T08:14:24.025Z,39.53
2019-02-19T08:19:22.219Z,79.35
2019-02-19T08:21:55.377Z,74.75
2019-02-19T08:24:28.366Z,74.12
2019-02-19T08:27:01.676Z,74.50
2019-02-19T08:29:36.265Z,74.10
2019-02-19T08:32:09.285Z,73.30
2019-02-19T08:34:42.150Z,76.05
2019-02-19T08:37:15.136Z,73.75
2019-02-19T08:39:47.915Z,70.37
2019-02-19T08:42:20.919Z,71.80
2019-02-19T08:44:53.778Z,71.63
2019-02-19T08:47:26.732Z,70.47
2019-02-19T08:49:59.554Z,68.50
2019-02-19T08:52:32.466Z,72.40
2019-02-19T08:55:06.119Z,71.07
2019-02-19T08:57:39.026Z,70.40
2019-02-19T09:00:12.974Z,69.00
2019-02-19T09:02:45.956Z,66.10
2019-02-19T09:05:18.810Z,48.73
2019-02-19T09:07:51.701Z,40.35
2019-02-19T09:10:24.592Z,31.07
2019-02-19T09:12:57.496Z,47.10
2019-02-19T09:15:30.354Z,42.05
2019-02-19T09:18:03.275Z,42.10
2019-02-19T09:20:36.880Z,40.70
2019-02-19T09:23:12.702Z,43.40
2019-02-19T09:25:48.525Z,31.47
2019-02-19T09:28:21.503Z,44.30
2019-02-19T09:30:55.156Z,47.67
2019-02-19T09:33:31.093Z,35.60
2019-02-19T09:36:03.967Z,38.13
2019-02-19T09:38:36.859Z,29.95
2019-02-19T09:41:09.704Z,44.63
2019-02-19T09:43:42.591Z,46.95
2019-02-19T09:46:18.693Z,48.78
2019-02-19T09:48:53.428Z,46.45
2019-02-19T09:51:26.412Z,25.77
2019-02-19T09:53:59.292Z,27.48
2019-02-19T09:56:32.116Z,47.23
2019-02-19T09:59:13.287Z,43.13
2019-02-19T10:01:46.184Z,42.25
2019-02-19T10:04:19.174Z,41.05
2019-02-19T10:06:52.102Z,28.23
2019-02-19T10:09:25.097Z,40.33
2019-02-19T10:11:57.989Z,41.48
2019-02-19T10:14:30.905Z,41.70
2019-02-19T10:17:03.808Z,40.90
2019-02-19T10:19:36.688Z,35.25
2019-02-19T10:22:09.645Z,39.27
2019-02-19T10:24:42.549Z,31.42
2019-02-19T10:27:15.486Z,36.33
2019-02-19T10:29:48.445Z,42.10
2019-02-19T10:32:21.389Z,36.40
2019-02-19T10:34:54.286Z,26.93
2019-02-19T10:37:27.187Z,34.30
2019-02-19T10:40:00.098Z,39.67
2019-02-19T10:42:32.930Z,36.70
2019-02-19T10:45:14.167Z,37.75
2019-02-19T10:47:47.170Z,39.18
2019-02-19T10:50:20.075Z,36.13
2019-02-19T10:52:52.920Z,40.38
2019-02-19T10:55:25.813Z,46.00
2019-02-19T10:57:58.685Z,44.13
2019-02-19T11:00:31.704Z,47.67
2019-02-19T11:03:06.158Z,42.23
2019-02-19T11:05:39.349Z,49.35
2019-02-19T11:08:12.229Z,48.20
2019-02-19T11:10:45.223Z,40.03
2019-02-19T11:13:19.481Z,46.75
2019-02-19T11:15:52.478Z,41.90
2019-02-19T11:18:28.476Z,41.53
2019-02-19T11:21:00.065Z,38.73
2019-02-19T11:23:33.765Z,37.25
2019-02-19T11:26:06.825Z,42.30
2019-02-19T11:28:41.246Z,42.15
2019-02-19T11:31:14.227Z,34.48
2019-02-19T11:33:47.175Z,38.75
2019-02-19T11:36:20.278Z,24.20
2019-02-19T11:38:53.163Z,29.02
2019-02-19T11:41:26.084Z,27.00
2019-02-19T11:43:59.071Z,27.70
2019-02-19T11:46:32.106Z,24.10
2019-02-19T11:49:06.463Z,17.50
2019-02-19T11:51:39.406Z,20.08
2019-02-19T11:54:12.427Z,23.02
2019-02-19T11:56:45.440Z,21.77
2019-02-19T11:59:18.305Z,24.05
2019-02-19T12:01:51.306Z,24.43
2019-02-19T12:04:24.327Z,21.52
2019-02-19T12:06:57.219Z,23.87
2019-02-19T12:09:30.244Z,25.35
2019-02-19T12:12:07.333Z,24.90
2019-02-19T12:14:40.288Z,25.15
2019-02-19T12:17:13.293Z,24.18
2019-02-19T12:19:46.284Z,20.25
2019-02-19T12:22:19.854Z,19.17
2019-02-19T12:24:52.735Z,25.88
2019-02-19T12:27:25.637Z,22.70
2019-02-19T12:29:58.646Z,22.20
2019-02-19T12:32:36.520Z,21.73
2019-02-19T12:35:11.755Z,21.62
2019-02-19T12:37:44.737Z,23.98
2019-02-19T12:40:19.273Z,19.98
2019-02-19T12:42:53.836Z,23.35
2019-02-19T12:45:28.161Z,24.45
2019-02-19T12:48:01.203Z,19.90
2019-02-19T12:50:35.496Z,20.43
2019-02-19T12:53:10.019Z,16.20
2019-02-19T12:55:43.713Z,16.15
2019-02-19T12:58:16.951Z,22.50
2019-02-19T13:00:49.830Z,23.83
2019-02-19T13:03:24.447Z,23.87
2019-02-19T13:05:57.402Z,21.60
2019-02-19T13:08:31.684Z,19.92
2019-02-19T13:11:04.558Z,17.85
2019-02-19T13:13:37.522Z,23.52
2019-02-19T13:16:11.804Z,23.20
2019-02-19T13:18:44.783Z,22.48
2019-02-19T13:23:57.035Z,19.62
2019-02-19T13:26:33.093Z,25.17
2019-02-19T13:29:08.644Z,21.50
2019-02-19T13:31:41.483Z,20.48
2019-02-19T13:34:18.455Z,22.58
2019-02-19T13:36:54.347Z,26.40
2019-02-19T13:39:28.756Z,26.42
2019-02-19T13:42:01.744Z,25.27
2019-02-19T13:44:34.651Z,24.50
2019-02-19T13:47:08.000Z,25.50
2019-02-19T13:49:40.947Z,23.65
2019-02-19T13:52:22.590Z,23.22
2019-02-19T13:54:52.734Z,21.23
2019-02-19T13:57:27.137Z,20.10
2019-02-19T14:00:00.142Z,24.57
2019-02-19T14:02:33.012Z,23.05
2019-02-19T14:05:09.739Z,22.80
2019-02-19T14:07:42.819Z,23.00
2019-02-19T14:10:15.819Z,21.93
2019-02-19T14:12:48.853Z,25.08
2019-02-19T14:15:38.933Z,23.22
2019-02-19T14:18:18.036Z,24.40
2019-02-19T14:21:04.755Z,20.30
2019-02-19T14:23:49.769Z,23.65
2019-02-19T14:26:37.702Z,21.52
2019-02-19T14:29:29.378Z,25.80
2019-02-19T14:32:18.227Z,22.65
2019-02-19T14:35:06.128Z,16.73
2019-02-19T14:37:56.664Z,22.95
2019-02-19T14:40:47.262Z,23.55
2019-02-19T14:43:30.626Z,23.12
2019-02-19T14:46:22.525Z,23.35
2019-02-19T14:48:58.376Z,22.40
2019-02-19T14:51:44.674Z,21.68
2019-02-19T14:54:28.257Z,20.90
2019-02-19T14:57:17.857Z,22.45
2019-02-19T15:00:08.335Z,23.22
2019-02-19T15:02:45.690Z,23.35
2019-02-19T15:05:29.131Z,22.30
2019-02-19T15:08:15.938Z,24.00
2019-02-19T15:10:50.539Z,23.22
2019-02-19T15:13:32.211Z,22.75
2019-02-19T15:16:06.801Z,23.50
2019-02-19T15:18:45.865Z,23.90
2019-02-19T15:21:26.748Z,21.70
2019-02-19T15:24:02.893Z,21.73
2019-02-19T15:26:47.063Z,24.02
2019-02-19T15:29:27.488Z,40.50
2019-02-19T15:32:02.928Z,670.90
2019-02-19T15:34:35.447Z,352.25
2019-02-19T15:37:15.431Z,999.90
2019-02-19T15:39:52.907Z,999.90
2019-02-19T15:42:39.905Z,489.87
2019-02-19T15:45:14.453Z,407.23
2019-02-19T15:47:59.604Z,449.55
2019-02-19T15:50:50.331Z,133.93
2019-02-19T15:53:36.423Z,194.15
2019-02-19T15:56:17.657Z,431.40
2019-02-19T15:59:08.076Z,410.27
2019-02-19T16:01:51.575Z,164.82
2019-02-19T16:04:34.777Z,663.27
2019-02-19T16:07:15.277Z,80.32
2019-02-19T16:09:50.551Z,56.10
2019-02-19T16:12:25.259Z,62.38
2019-02-19T16:14:59.746Z,225.57
2019-02-19T16:17:36.746Z,138.62
2019-02-19T16:20:10.927Z,242.60
2019-02-19T16:22:49.377Z,260.98
2019-02-19T16:25:41.471Z,90.55
2019-02-19T16:28:26.284Z,91.22
2019-02-19T16:30:59.975Z,53.90
2019-02-19T16:33:40.105Z,147.20
2019-02-19T16:36:17.189Z,54.35
2019-02-19T16:38:54.290Z,76.10
2019-02-19T16:41:31.370Z,38.73
2019-02-19T16:44:17.493Z,31.60
2019-02-19T16:46:51.869Z,53.87
2019-02-19T16:49:34.828Z,41.80
2019-02-19T16:52:09.218Z,42.03
2019-02-19T16:54:49.640Z,29.77
2019-02-19T16:57:26.429Z,30.92
2019-02-19T17:00:02.200Z,35.15
2019-02-19T17:02:46.896Z,35.73
2019-02-19T17:05:19.454Z,34.30
2019-02-19T17:07:53.957Z,42.67
2019-02-19T17:10:29.755Z,34.65
2019-02-19T17:13:07.040Z,36.30
2019-02-19T17:15:41.467Z,35.63
2019-02-19T17:18:18.986Z,36.75
2019-02-19T17:21:09.659Z,36.35
2019-02-19T17:23:47.149Z,35.38
2019-02-19T17:26:21.574Z,37.33
2019-02-19T17:28:58.873Z,38.70
2019-02-19T17:31:46.690Z,36.53
2019-02-19T17:34:24.136Z,41.80
2019-02-19T17:36:58.555Z,37.23
2019-02-19T17:39:42.547Z,41.10
2019-02-19T17:42:22.694Z,38.67
2019-02-19T17:44:59.802Z,41.50
2019-02-19T17:47:37.205Z,41.18
2019-02-19T17:50:18.765Z,40.30
2019-02-19T17:53:09.312Z,41.58
2019-02-19T17:55:55.840Z,39.35
2019-02-19T17:58:28.384Z,37.73
2019-02-19T18:01:11.834Z,39.50
2019-02-19T18:03:46.304Z,29.92
2019-02-19T18:06:18.887Z,36.20
2019-02-19T18:08:51.446Z,41.15
2019-02-19T18:11:26.729Z,68.55
2019-02-19T18:14:15.940Z,256.50
2019-02-19T18:16:59.585Z,68.75
2019-02-19T18:19:32.619Z,101.65
2019-02-19T18:22:05.619Z,97.33
2019-02-19T18:24:38.357Z,50.92
2019-02-19T18:27:11.260Z,42.03
2019-02-19T18:29:44.237Z,44.77
2019-02-19T18:32:17.246Z,48.00
2019-02-19T18:34:50.226Z,44.42
2019-02-19T18:37:24.748Z,66.75
2019-02-19T18:39:57.607Z,47.30
2019-02-19T18:42:30.521Z,39.70
2019-02-19T18:45:03.440Z,52.17
2019-02-19T18:47:37.305Z,50.17
2019-02-19T18:50:10.882Z,30.92
2019-02-19T18:52:43.807Z,73.50
2019-02-19T18:55:16.680Z,58.00
2019-02-19T18:57:49.687Z,53.17
2019-02-19T19:00:23.428Z,51.70
2019-02-19T19:02:56.241Z,85.00
2019-02-19T19:05:29.000Z,51.10
2019-02-19T19:08:01.965Z,52.17
2019-02-19T19:10:34.653Z,54.58
2019-02-19T19:13:07.527Z,56.15
2019-02-19T19:15:40.384Z,55.83
2019-02-19T19:18:13.332Z,55.75
2019-02-19T19:20:47.549Z,64.10
2019-02-19T19:23:20.436Z,64.05
2019-02-19T19:25:53.191Z,66.53
2019-02-19T19:28:26.119Z,65.72
2019-02-19T19:30:58.945Z,69.12
2019-02-19T19:33:31.907Z,59.15
2019-02-19T19:36:04.754Z,63.02
2019-02-19T19:38:37.745Z,63.95
2019-02-19T19:41:10.572Z,61.05
2019-02-19T19:43:43.379Z,65.97
2019-02-19T19:46:16.297Z,64.03
2019-02-19T19:48:49.068Z,60.90
2019-02-19T19:51:21.901Z,61.05
2019-02-19T19:53:54.688Z,57.57
2019-02-19T19:56:27.406Z,63.80
2019-02-19T19:59:00.197Z,64.27
2019-02-19T20:01:33.058Z,58.83
2019-02-19T20:04:06.051Z,62.30
2019-02-19T20:06:38.786Z,57.45
2019-02-19T20:09:11.523Z,59.13
2019-02-19T20:11:44.784Z,61.30
2019-02-19T20:14:17.511Z,63.42
2019-02-19T20:16:50.488Z,64.10
2019-02-19T20:19:23.498Z,59.80
2019-02-19T20:21:56.327Z,60.80
2019-02-19T20:24:29.249Z,55.43
2019-02-19T20:27:02.327Z,55.65
2019-02-19T20:29:35.367Z,53.05
2019-02-19T20:32:08.210Z,52.43
2019-02-19T20:34:41.346Z,52.20
2019-02-19T20:37:14.106Z,52.48
2019-02-19T20:39:46.990Z,50.95
2019-02-19T20:42:23.538Z,52.93
2019-02-19T20:44:56.257Z,54.42
2019-02-19T20:47:29.025Z,55.28
2019-02-19T20:50:01.938Z,69.50
2019-02-19T20:52:35.532Z,67.47
2019-02-19T20:55:11.291Z,67.40
2019-02-19T20:57:44.029Z,71.12
2019-02-19T21:00:18.175Z,62.35
2019-02-19T21:02:51.956Z,46.65
2019-02-19T21:05:24.769Z,60.92
2019-02-19T21:07:57.725Z,62.65
2019-02-19T21:10:30.642Z,59.58
2019-02-19T21:13:03.447Z,63.73
2019-02-19T21:15:36.259Z,59.50
2019-02-19T21:18:09.072Z,58.43
2019-02-19T21:20:43.367Z,54.43
2019-02-19T21:23:16.152Z,51.57
2019-02-19T21:25:49.010Z,40.88
2019-02-19T21:28:21.985Z,58.80
2019-02-19T21:30:54.778Z,50.93
2019-02-19T21:33:27.640Z,48.60
2019-02-19T21:36:00.469Z,51.40
2019-02-19T21:38:33.307Z,45.80
2019-02-19T21:41:07.807Z,46.10
2019-02-19T21:43:40.580Z,38.63
2019-02-19T21:46:13.479Z,27.67
2019-02-19T21:48:48.158Z,43.87
2019-02-19T21:51:20.755Z,24.67
2019-02-19T21:53:53.572Z,27.00
2019-02-19T21:56:26.353Z,21.27
2019-02-19T21:58:59.129Z,26.80
2019-02-19T22:01:32.022Z,22.37
2019-02-19T22:04:06.387Z,17.83
2019-02-19T22:06:40.831Z,22.93
2019-02-19T22:09:13.741Z,18.33
2019-02-19T22:11:47.744Z,20.10
2019-02-19T22:14:20.617Z,21.60
2019-02-19T22:16:54.278Z,20.90
2019-02-19T22:19:27.055Z,21.17
2019-02-19T22:22:03.713Z,26.93
2019-02-19T22:24:51.486Z,29.13
2019-02-19T22:27:24.391Z,25.93
2019-02-19T22:29:57.294Z,25.57
2019-02-19T22:32:30.118Z,24.37
2019-02-19T22:35:04.451Z,23.23
2019-02-19T22:37:37.365Z,21.37
2019-02-19T22:40:10.226Z,26.20
2019-02-19T22:42:43.155Z,22.63
2019-02-19T22:45:16.026Z,22.80
2019-02-19T22:47:53.510Z,22.70
2019-02-19T22:50:23.413Z,21.93
2019-02-19T22:52:56.317Z,20.30
2019-02-19T22:55:30.721Z,23.20
2019-02-19T22:58:03.796Z,19.67
2019-02-19T23:00:39.907Z,17.97
2019-02-19T23:03:26.421Z,20.87
2019-02-19T23:05:59.380Z,17.50
2019-02-19T23:08:32.289Z,19.20
2019-02-19T23:11:06.545Z,20.00
2019-02-19T23:13:39.474Z,18.00
2019-02-19T23:16:12.431Z,19.87
2019-02-19T23:18:45.334Z,17.47
2019-02-19T23:21:18.325Z,15.17
2019-02-19T23:23:51.255Z,16.40
2019-02-19T23:26:24.087Z,16.50
2019-02-19T23:28:56.984Z,13.90
2019-02-19T23:31:29.854Z,15.17
2019-02-19T23:34:02.679Z,13.50
2019-02-19T23:36:37.147Z,14.00
2019-02-19T23:39:11.699Z,15.33
2019-02-19T23:41:47.100Z,16.20
2019-02-19T23:44:20.411Z,10.90
2019-02-19T23:46:54.287Z,17.63
2019-02-19T23:49:27.178Z,15.90
2019-02-19T23:52:00.033Z,11.63
2019-02-19T23:54:32.987Z,18.67
2019-02-19T23:57:05.828Z,21.33
2019-02-19T23:59:38.703Z,20.33
